createdAt,value
2019-02-27T00:01:16.697Z,99.90
2019-02-27T00:04:18.075Z,99.90
2019-02-27T00:07:21.632Z,99.90
2019-02-27T00:10:25.223Z,99.90
2019-02-27T00:13:28.692Z,99.90
2019-02-27T00:16:32.142Z,99.90
2019-02-27T00:19:36.620Z,99.90
2019-02-27T00:22:41.094Z,99.90
2019-02-27T00:25:44.592Z,99.90
2019-02-27T00:28:48.152Z,99.90
2019-02-27T00:31:52.720Z,99.90
2019-02-27T00:34:56.181Z,99.90
2019-02-27T00:37:59.584Z,99.90
2019-02-27T00:41:03.022Z,99.90
2019-02-27T00:44:06.687Z,99.90
2019-02-27T00:47:10.245Z,99.90
2019-02-27T00:50:13.692Z,99.90
2019-02-27T00:53:17.096Z,99.90
2019-02-27T00:56:20.632Z,99.90
2019-02-27T00:59:24.200Z,99.90
2019-02-27T01:02:27.847Z,99.90
2019-02-27T01:05:31.408Z,99.90
2019-02-27T01:08:34.871Z,99.90
2019-02-27T01:11:38.353Z,99.90
2019-02-27T01:14:41.920Z,99.90
2019-02-27T01:17:45.461Z,99.90
2019-02-27T01:20:48.916Z,99.90
2019-02-27T01:23:52.424Z,99.90
2019-02-27T01:26:55.868Z,99.90
2019-02-27T01:29:59.428Z,99.90
2019-02-27T01:33:04.161Z,99.90
2019-02-27T01:36:08.068Z,99.90
2019-02-27T01:39:12.030Z,99.90
2019-02-27T01:42:15.624Z,99.90
2019-02-27T01:45:21.067Z,99.90
2019-02-27T01:48:24.531Z,99.90
2019-02-27T01:51:28.193Z,99.90
2019-02-27T01:54:32.368Z,99.90
2019-02-27T01:57:36.801Z,99.90
2019-02-27T02:00:40.904Z,99.90
2019-02-27T02:03:47.281Z,99.90
2019-02-27T02:06:49.684Z,99.90
2019-02-27T02:09:55.028Z,99.90
2019-02-27T02:13:14.837Z,99.90
2019-02-27T02:16:34.121Z,99.90
2019-02-27T02:20:19.540Z,99.90
2019-02-27T02:23:36.100Z,99.90
2019-02-27T02:27:07.773Z,99.90
2019-02-27T02:30:57.636Z,99.90
2019-02-27T02:34:32.073Z,99.90
2019-02-27T02:38:25.607Z,99.90
2019-02-27T02:42:00.687Z,99.90
2019-02-27T02:45:19.704Z,99.90
2019-02-27T02:48:55.113Z,99.90
2019-02-27T02:52:28.461Z,99.90
2019-02-27T02:56:04.121Z,99.90
2019-02-27T03:00:06.960Z,99.90
2019-02-27T03:03:55.312Z,99.90
2019-02-27T03:07:58.059Z,99.90
2019-02-27T03:11:54.236Z,99.90
2019-02-27T03:15:09.717Z,99.90
2019-02-27T03:18:45.278Z,99.90
2019-02-27T03:22:19.145Z,99.90
2019-02-27T03:25:51.672Z,99.90
2019-02-27T03:29:15.576Z,99.90
2019-02-27T03:32:28.276Z,99.90
2019-02-27T03:36:03.443Z,99.90
2019-02-27T03:40:02.141Z,99.90
2019-02-27T03:43:51.711Z,99.90
2019-02-27T03:47:54.436Z,99.90
2019-02-27T03:51:34.763Z,99.90
2019-02-27T03:55:05.697Z,99.90
2019-02-27T03:58:40.184Z,99.90
2019-02-27T04:02:42.215Z,99.90
2019-02-27T04:06:21.720Z,99.90
2019-02-27T04:09:25.248Z,99.90
2019-02-27T04:12:28.714Z,99.90
2019-02-27T04:15:32.316Z,99.90
2019-02-27T04:18:34.273Z,99.90
2019-02-27T04:21:37.801Z,99.90
2019-02-27T04:24:41.295Z,99.90
2019-02-27T04:27:44.678Z,99.90
2019-02-27T04:30:51.101Z,99.90
2019-02-27T04:33:53.429Z,99.90
2019-02-27T04:36:56.832Z,99.90
2019-02-27T04:40:00.407Z,99.90
2019-02-27T04:43:03.831Z,99.90
2019-02-27T04:46:07.381Z,99.90
2019-02-27T04:49:10.932Z,99.90
2019-02-27T04:52:14.336Z,99.90
2019-02-27T04:55:17.776Z,99.90
2019-02-27T04:58:21.343Z,99.90
2019-02-27T05:01:24.743Z,99.90
2019-02-27T05:04:28.244Z,99.90
2019-02-27T05:07:31.652Z,99.90
2019-02-27T05:10:35.145Z,99.90
2019-02-27T05:13:38.547Z,99.90
2019-02-27T05:16:42.045Z,99.90
2019-02-27T05:19:45.447Z,99.90
2019-02-27T05:22:48.852Z,99.90
2019-02-27T05:25:52.245Z,99.90
2019-02-27T05:28:55.792Z,99.90
2019-02-27T05:31:59.249Z,99.90
2019-02-27T05:35:02.778Z,99.90
2019-02-27T05:38:06.405Z,99.90
2019-02-27T05:41:10.010Z,99.90
2019-02-27T05:44:13.508Z,99.90
2019-02-27T05:47:17.011Z,99.90
2019-02-27T05:50:20.476Z,99.90
2019-02-27T05:53:23.912Z,99.90
2019-02-27T05:56:27.373Z,99.90
2019-02-27T05:59:30.928Z,99.90
2019-02-27T06:02:34.476Z,99.90
2019-02-27T06:05:37.812Z,99.90
2019-02-27T06:08:41.325Z,99.90
2019-02-27T06:11:44.780Z,99.90
2019-02-27T06:14:48.340Z,99.90
2019-02-27T06:17:51.944Z,99.90
2019-02-27T06:20:55.479Z,99.90
2019-02-27T06:23:59.120Z,99.90
2019-02-27T06:27:06.071Z,99.90
2019-02-27T06:30:10.356Z,99.90
2019-02-27T06:33:13.800Z,99.90
2019-02-27T06:36:17.265Z,99.90
2019-02-27T06:39:20.804Z,99.90
2019-02-27T06:42:24.293Z,99.90
2019-02-27T06:45:27.552Z,99.90
2019-02-27T06:48:31.100Z,99.90
2019-02-27T06:51:35.774Z,99.90
2019-02-27T06:54:39.944Z,99.90
2019-02-27T06:57:43.720Z,99.90
2019-02-27T07:00:47.225Z,99.90
2019-02-27T07:03:50.620Z,99.90
2019-02-27T07:06:55.509Z,99.90
2019-02-27T07:10:00.388Z,99.90
2019-02-27T07:13:03.796Z,99.90
2019-02-27T07:16:07.200Z,99.90
2019-02-27T07:19:13.225Z,99.90
2019-02-27T07:22:15.944Z,99.90
2019-02-27T07:25:19.445Z,99.90
2019-02-27T07:28:22.947Z,99.90
2019-02-27T07:31:26.344Z,99.90
2019-02-27T07:34:29.780Z,99.90
2019-02-27T07:37:33.596Z,99.90
2019-02-27T07:40:37.055Z,99.90
2019-02-27T07:43:40.500Z,99.90
2019-02-27T07:46:43.961Z,99.90
2019-02-27T07:49:48.300Z,99.90
2019-02-27T07:52:52.188Z,99.90
2019-02-27T07:55:55.798Z,99.90
2019-02-27T07:58:59.340Z,99.90
2019-02-27T08:02:03.826Z,99.90
2019-02-27T08:05:07.636Z,99.90
2019-02-27T08:08:12.056Z,99.90
2019-02-27T08:11:15.608Z,99.90
2019-02-27T08:14:19.112Z,99.90
2019-02-27T08:17:23.640Z,99.90
2019-02-27T08:20:27.712Z,99.90
2019-02-27T08:23:32.695Z,99.90
2019-02-27T08:26:36.579Z,99.90
2019-02-27T08:29:40.612Z,99.90
2019-02-27T08:32:44.073Z,99.90
2019-02-27T08:35:47.620Z,99.90
2019-02-27T08:38:51.120Z,99.90
2019-02-27T08:41:54.684Z,99.90
2019-02-27T08:44:58.096Z,99.90
2019-02-27T08:48:01.589Z,99.90
2019-02-27T08:51:08.321Z,99.90
2019-02-27T08:54:10.328Z,99.90
2019-02-27T08:57:13.728Z,99.90
2019-02-27T09:00:18.972Z,99.90
2019-02-27T09:03:22.672Z,99.90
2019-02-27T09:06:27.535Z,99.90
2019-02-27T09:09:31.368Z,99.90
2019-02-27T09:12:34.964Z,99.90
2019-02-27T09:15:38.680Z,99.90
2019-02-27T09:18:44.105Z,99.90
2019-02-27T09:21:47.540Z,99.90
2019-02-27T09:24:50.980Z,99.90
2019-02-27T09:27:54.525Z,99.90
2019-02-27T09:31:03.288Z,99.90
2019-02-27T09:34:03.437Z,99.90
2019-02-27T09:37:06.983Z,99.90
2019-02-27T09:40:14.228Z,99.90
2019-02-27T09:43:17.733Z,99.90
2019-02-27T09:46:21.172Z,99.90
2019-02-27T09:49:24.640Z,99.90
2019-02-27T09:52:30.182Z,99.90
2019-02-27T09:55:33.317Z,99.90
2019-02-27T09:58:36.780Z,99.90
2019-02-27T10:01:40.216Z,99.90
2019-02-27T10:04:43.683Z,99.90
2019-02-27T10:07:48.484Z,99.90
2019-02-27T10:10:52.465Z,99.90
2019-02-27T10:13:55.933Z,99.90
2019-02-27T10:17:01.378Z,99.90
2019-02-27T10:20:05.508Z,99.90
2019-02-27T10:23:08.893Z,99.90
2019-02-27T10:26:12.452Z,99.90
2019-02-27T10:29:18.944Z,99.90
2019-02-27T10:32:22.264Z,99.90
2019-02-27T10:35:26.879Z,99.90
2019-02-27T10:38:31.116Z,99.90
2019-02-27T10:41:34.557Z,99.90
2019-02-27T10:44:38.124Z,99.90
2019-02-27T10:47:41.628Z,99.90
2019-02-27T10:50:45.166Z,98.00
2019-02-27T10:53:50.347Z,95.60
2019-02-27T10:56:56.318Z,92.60
2019-02-27T11:00:00.353Z,91.10
2019-02-27T11:03:03.945Z,88.80
2019-02-27T11:06:07.897Z,82.50
2019-02-27T11:09:21.810Z,84.10
2019-02-27T11:12:26.825Z,81.10
2019-02-27T11:15:30.548Z,74.90
2019-02-27T11:18:34.051Z,74.10
2019-02-27T11:21:39.020Z,72.00
2019-02-27T11:24:42.936Z,70.30
2019-02-27T11:27:46.406Z,69.10
2019-02-27T11:30:51.069Z,66.70
2019-02-27T11:33:54.573Z,68.00
2019-02-27T11:36:58.081Z,66.70
2019-02-27T11:40:01.639Z,65.30
2019-02-27T11:43:07.000Z,64.60
2019-02-27T11:46:11.144Z,66.40
2019-02-27T11:49:14.716Z,65.50
2019-02-27T11:52:18.115Z,63.30
2019-02-27T11:55:21.514Z,62.00
2019-02-27T11:58:25.011Z,60.30
2019-02-27T12:01:28.555Z,58.70
2019-02-27T12:04:32.016Z,54.70
2019-02-27T12:07:35.417Z,55.80
2019-02-27T12:10:38.812Z,51.70
2019-02-27T12:13:42.319Z,51.40
2019-02-27T12:16:45.810Z,52.40
2019-02-27T12:19:49.204Z,48.30
2019-02-27T12:22:53.640Z,48.70
2019-02-27T12:25:57.136Z,50.50
2019-02-27T12:29:00.640Z,48.30
2019-02-27T12:32:04.041Z,49.00
2019-02-27T12:35:10.847Z,49.30
2019-02-27T12:38:14.833Z,48.40
2019-02-27T12:41:18.232Z,48.20
2019-02-27T12:44:21.638Z,49.10
2019-02-27T12:47:25.136Z,48.80
2019-02-27T12:50:31.037Z,49.10
2019-02-27T12:53:33.986Z,48.40
2019-02-27T12:56:41.586Z,48.00
2019-02-27T12:59:42.827Z,47.60
2019-02-27T13:02:46.372Z,47.30
2019-02-27T13:05:49.516Z,47.70
2019-02-27T13:08:53.468Z,48.00
2019-02-27T13:11:56.984Z,48.10
2019-02-27T13:15:00.448Z,48.80
2019-02-27T13:18:03.882Z,47.80
2019-02-27T13:21:07.387Z,47.10
2019-02-27T13:24:15.100Z,46.80
2019-02-27T13:27:16.297Z,46.70
2019-02-27T13:30:20.053Z,46.20
2019-02-27T13:33:23.508Z,46.80
2019-02-27T13:36:26.953Z,47.00
2019-02-27T13:39:30.559Z,47.00
2019-02-27T13:42:33.952Z,47.80
2019-02-27T13:45:37.488Z,48.60
2019-02-27T13:48:40.920Z,49.30
2019-02-27T13:51:44.460Z,49.70
2019-02-27T13:54:48.017Z,48.40
2019-02-27T13:57:51.421Z,49.00
2019-02-27T14:00:55.067Z,50.20
2019-02-27T14:03:58.532Z,50.20
2019-02-27T14:07:02.032Z,51.20
2019-02-27T14:10:05.674Z,53.60
2019-02-27T14:13:09.951Z,55.10
2019-02-27T14:16:13.600Z,55.80
2019-02-27T14:19:17.065Z,56.30
2019-02-27T14:22:20.469Z,56.30
2019-02-27T14:25:28.505Z,56.70
2019-02-27T14:28:29.870Z,55.20
2019-02-27T14:31:33.370Z,55.60
2019-02-27T14:34:36.828Z,56.60
2019-02-27T14:37:40.232Z,56.30
2019-02-27T14:40:43.783Z,56.90
2019-02-27T14:43:47.340Z,55.70
2019-02-27T14:46:50.840Z,54.30
2019-02-27T14:49:54.380Z,53.70
2019-02-27T14:52:59.276Z,53.50
2019-02-27T14:56:02.780Z,53.30
2019-02-27T14:59:06.285Z,52.80
2019-02-27T15:02:09.787Z,52.90
2019-02-27T15:05:13.220Z,51.00
2019-02-27T15:08:16.784Z,51.40
2019-02-27T15:11:20.188Z,52.00
2019-02-27T15:14:23.588Z,53.10
2019-02-27T15:17:26.995Z,52.80
2019-02-27T15:20:30.628Z,53.30
2019-02-27T15:23:34.092Z,53.10
2019-02-27T15:26:45.025Z,52.90
2019-02-27T15:29:42.960Z,52.30
2019-02-27T15:32:46.448Z,52.10
2019-02-27T15:35:49.984Z,52.50
2019-02-27T15:38:53.457Z,53.50
2019-02-27T15:41:57.060Z,54.50
2019-02-27T15:45:00.460Z,55.10
2019-02-27T15:48:06.919Z,56.50
2019-02-27T15:51:09.300Z,57.30
2019-02-27T15:54:12.709Z,58.80
2019-02-27T15:57:17.770Z,60.20
2019-02-27T16:00:21.960Z,61.20
2019-02-27T16:03:25.465Z,62.80
2019-02-27T16:06:28.864Z,64.10
2019-02-27T16:09:32.476Z,65.30
2019-02-27T16:12:35.968Z,66.70
2019-02-27T16:15:39.473Z,67.50
2019-02-27T16:18:42.976Z,68.50
2019-02-27T16:21:46.382Z,69.00
2019-02-27T16:24:49.780Z,69.90
2019-02-27T16:27:53.212Z,71.40
2019-02-27T16:30:56.816Z,72.70
2019-02-27T16:34:00.280Z,74.40
2019-02-27T16:37:03.720Z,76.20
2019-02-27T16:40:08.410Z,77.50
2019-02-27T16:43:13.554Z,80.90
2019-02-27T16:46:17.409Z,81.80
2019-02-27T16:49:20.863Z,83.40
2019-02-27T16:52:24.508Z,85.00
2019-02-27T16:55:28.176Z,87.00
2019-02-27T16:58:33.124Z,88.50
2019-02-27T17:01:37.272Z,90.70
2019-02-27T17:04:42.722Z,93.30
2019-02-27T17:07:46.125Z,95.80
2019-02-27T17:10:51.922Z,98.50
2019-02-27T17:13:54.931Z,99.90
2019-02-27T17:16:58.472Z,99.90
2019-02-27T17:20:01.975Z,99.90
2019-02-27T17:23:10.651Z,99.90
2019-02-27T17:26:12.524Z,99.90
2019-02-27T17:29:16.133Z,99.90
2019-02-27T17:32:19.568Z,99.90
2019-02-27T17:35:23.597Z,99.90
2019-02-27T17:38:27.698Z,99.90
2019-02-27T17:41:31.153Z,99.90
2019-02-27T17:44:35.295Z,99.90
2019-02-27T17:47:40.047Z,99.90
2019-02-27T17:50:43.620Z,99.90
2019-02-27T17:53:51.243Z,99.90
2019-02-27T17:57:10.517Z,99.90
2019-02-27T18:00:21.536Z,99.90
2019-02-27T18:03:25.107Z,99.90
2019-02-27T18:07:00.764Z,99.90
2019-02-27T18:10:04.429Z,99.90
2019-02-27T18:13:07.876Z,99.90
2019-02-27T18:16:11.536Z,99.90
2019-02-27T18:19:16.661Z,99.90
2019-02-27T18:22:20.322Z,99.90
2019-02-27T18:25:24.116Z,99.90
2019-02-27T18:28:32.612Z,99.90
2019-02-27T18:31:33.270Z,99.90
2019-02-27T18:34:36.747Z,99.90
2019-02-27T18:37:40.184Z,99.90
2019-02-27T18:40:43.726Z,99.90
2019-02-27T18:44:08.287Z,99.90
2019-02-27T18:47:11.901Z,99.90
2019-02-27T18:50:15.449Z,99.90
2019-02-27T18:53:21.303Z,99.90
2019-02-27T18:56:24.867Z,99.90
2019-02-27T18:59:29.586Z,99.90
2019-02-27T19:02:33.750Z,99.90
2019-02-27T19:05:40.854Z,99.90
2019-02-27T19:08:43.857Z,99.90
2019-02-27T19:11:50.878Z,99.90
2019-02-27T19:14:53.756Z,99.90
2019-02-27T19:17:57.300Z,99.90
2019-02-27T19:21:00.872Z,99.90
2019-02-27T19:24:07.133Z,99.90
2019-02-27T19:27:10.792Z,99.90
2019-02-27T19:30:16.232Z,99.90
2019-02-27T19:33:21.742Z,99.90
2019-02-27T19:36:25.288Z,99.90
2019-02-27T19:39:28.743Z,99.90
2019-02-27T19:42:32.392Z,99.90
2019-02-27T19:45:36.648Z,99.90
2019-02-27T19:48:40.331Z,99.90
2019-02-27T19:51:45.648Z,99.90
2019-02-27T19:54:51.587Z,99.90
2019-02-27T19:57:55.270Z,99.90
2019-02-27T20:00:59.104Z,99.90
2019-02-27T20:04:09.243Z,99.90
2019-02-27T20:07:09.856Z,99.90
2019-02-27T20:10:14.746Z,99.90
2019-02-27T20:13:19.340Z,99.90
2019-02-27T20:16:23.611Z,99.90
2019-02-27T20:19:29.254Z,99.90
2019-02-27T20:22:33.840Z,99.90
2019-02-27T20:25:37.231Z,99.90
2019-02-27T20:28:40.770Z,99.90
2019-02-27T20:31:44.367Z,99.90
2019-02-27T20:34:47.889Z,99.90
2019-02-27T20:37:52.213Z,99.90
2019-02-27T20:40:56.624Z,99.90
2019-02-27T20:44:03.333Z,99.90
2019-02-27T20:47:07.388Z,99.90
2019-02-27T20:50:20.989Z,99.90
2019-02-27T20:53:21.856Z,99.90
2019-02-27T20:56:27.255Z,99.90
2019-02-27T20:59:31.708Z,99.90
2019-02-27T21:02:36.543Z,99.90
2019-02-27T21:05:41.963Z,99.90
2019-02-27T21:08:46.556Z,99.90
2019-02-27T21:11:51.490Z,99.90
2019-02-27T21:14:57.901Z,99.90
2019-02-27T21:18:02.479Z,99.90
2019-02-27T21:21:07.105Z,99.90
2019-02-27T21:24:12.040Z,99.90
2019-02-27T21:27:16.527Z,99.90
2019-02-27T21:30:20.278Z,99.90
2019-02-27T21:33:25.908Z,99.90
2019-02-27T21:36:30.828Z,99.90
2019-02-27T21:39:35.184Z,99.90
2019-02-27T21:42:38.972Z,99.90
2019-02-27T21:45:42.738Z,99.90
2019-02-27T21:48:46.264Z,99.90
2019-02-27T21:51:49.824Z,99.90
2019-02-27T21:54:54.288Z,99.90
2019-02-27T21:57:58.350Z,99.90
2019-02-27T22:01:02.480Z,99.90
2019-02-27T22:04:09.777Z,99.90
2019-02-27T22:07:12.559Z,99.90
2019-02-27T22:10:19.399Z,99.90
2019-02-27T22:13:28.779Z,99.90
2019-02-27T22:16:29.508Z,99.90
2019-02-27T22:19:31.832Z,99.90
2019-02-27T22:22:35.499Z,99.90
2019-02-27T22:25:39.315Z,99.90
2019-02-27T22:28:42.952Z,99.90
2019-02-27T22:31:46.520Z,99.90
2019-02-27T22:34:50.153Z,99.90
2019-02-27T22:37:53.724Z,99.90
2019-02-27T22:40:57.232Z,99.90
2019-02-27T22:44:00.875Z,99.90
2019-02-27T22:47:04.435Z,99.90
2019-02-27T22:50:08.903Z,99.90
2019-02-27T22:53:12.372Z,99.90
2019-02-27T22:56:17.028Z,99.90
2019-02-27T22:59:20.640Z,99.90
2019-02-27T23:06:57.412Z,99.90
2019-02-27T23:10:00.959Z,99.90
2019-02-27T23:13:04.620Z,99.90
2019-02-27T23:16:08.180Z,99.90
2019-02-27T23:19:13.005Z,99.90
2019-02-27T23:22:16.768Z,99.90
2019-02-27T23:25:20.397Z,99.90
2019-02-27T23:28:23.976Z,99.90
2019-02-27T23:31:27.484Z,99.90
2019-02-27T23:34:31.020Z,99.90
2019-02-27T23:37:34.587Z,99.90
2019-02-27T23:40:39.047Z,99.90
2019-02-27T23:43:42.515Z,99.90
2019-02-27T23:46:49.635Z,99.90
2019-02-27T23:54:12.421Z,99.90
2019-02-27T23:57:15.980Z,99.90
